Terminal Aerodrome Forecast
Issued by NWS Grand Forks, ND

Home | Current Version | Previous Version | Graphics & Text | Print | Product List | Glossary On
Versions: 1 2 3 4 5 6 7 8 9 10 11 12 13 14
000
FTUS43 KFGF 220500
TAFGFK
TAF
KGFK 220520Z 2206/2306 01015G25KT P6SM -RA BKN050
     FM220700 36010KT P6SM BKN080
      TEMPO 2207/2208 -RA BKN050
     FM221200 33012KT P6SM SCT250=

USA.gov is the U.S. government's official web portal to all federal, state and local government web resources and services.